Saxnaes, Sweden

6:23 AM CEST on July 08, 2015 (GMT +0200)
Hemavan | | Change Station
CLOSE
Current Station
Personal Weather Station
Location: Hemavan, HEMAVAN
Elevation: 1617 ft
Nearby Weather Stations

Elev 1617 ft 65.81 °N, 15.11 °E | Updated 3 minutes ago

Overcast
Overcast
45.1 °F
Feels Like 45 °F
N
0.0
Wind Variable Wind from SE
Gusts 0.0 mph

Today
High -- | Low -- °F
--% Chance of Precip.
Yesterday
High -- | Low -- °F
Precip. -- in
2:16 AM 11:47 PM
Waning Gibbous, 58% visible
Pressure 29.44 in
Visibility 6.2 miles
Clouds Scattered Clouds 2600 ft
Overcast 3300 ft
Windchill 45 °F
Dew Point 42 °F
Humidity 90%
Rainfall 0.00 in
Snow Depth Not available.
UV 0.0 out of 12
Pollen Not available.
Air Quality Not available.
Flu Activity Not available.
METAR ESUT 080350Z AUTO 00000KT 9999 SCT026/// OVC033/// 08/05 Q0997

More Conditions Fewer Conditions

Pressure 29.44 in
Visibility 6.2 miles
Clouds Scattered Clouds 2600 ft
Overcast 3300 ft
Windchill 45 °F
Dew Point 42 °F
Humidity 90%
Rainfall 0.00 in
Snow Depth Not available.
UV 0.0 out of 12
Pollen Not available.
Air Quality Not available.
Flu Activity Not available.
METAR ESUT 080350Z AUTO 00000KT 9999 SCT026/// OVC033/// 08/05 Q0997

More Conditions Fewer Conditions

10-Day Weather Forecast

×

Almanac

Astronomy

Jul. 08, 2015 Rise Set
Actual Time
Civil Twilight
Nautical Twilight
Astronomical Twilight
Moon
Length of Visible Light
Length of Day
Tomorrow will be .
, % of the Moon is Illuminated

Today's Extremes

Country Highs Country Lows

Community

WunderPhotos

Upload Photos

1,836,050 photos uploaded!

WunderBlogs® & News

Nearby

Air Quality

  Air Quality AQ Index Pollutant
Not available.

Snow Depth

Station Depth Elevation

Earthquake Activity

City Distance Mag. Time & Date
Minimum magnitude displayed is 2.5.

Coastal Water Temperatures

Place Temperature

Stations

Nearby Weather Stations

Station Location Temp. Windchill Dew Point Humidity Wind Precip. Elev Updated Type